Time;durP1;ratioP1;P1;durP2;ratioP2;P2;SDS_P1;SDS_P2;PMS_P1;PMS_P2;Temp;Humidity;BMP_temperature;BMP_pressure;BME280_temperature;BME280_humidity;BME280_pressure;Samples;Min_cycle;Max_cycle;Signal;HPM_P1;HPM_P2
2021/12/20 00:00:47;;;;;;;28.52;4.28;;;;;;;;;;4988524;28;96432;-73
2021/12/20 00:03:14;;;;;;;19.13;2.83;;;;;;;;;;4988579;28;97278;-73
2021/12/20 00:05:41;;;;;;;21.80;3.20;;;;;;;;;;4991093;28;96053;-73
2021/12/20 00:08:07;;;;;;;21.52;2.95;;;;;;;;;;4994661;28;97215;-74
2021/12/20 00:10:34;;;;;;;30.40;3.05;;;;;;;;;;4991842;28;95144;-73
2021/12/20 00:13:00;;;;;;;20.83;3.55;;;;;;;;;;4991801;28;96702;-73
2021/12/20 00:15:26;;;;;;;26.42;4.05;;;;;;;;;;4991793;28;97450;-74
2021/12/20 00:17:53;;;;;;;28.85;3.00;;;;;;;;;;4990961;28;95252;-73
2021/12/20 00:20:20;;;;;;;28.98;3.33;;;;;;;;;;4991433;28;96676;-73
2021/12/20 00:22:47;;;;;;;24.63;3.38;;;;;;;;;;4991117;28;96895;-74
2021/12/20 00:25:13;;;;;;;23.15;3.70;;;;;;;;;;4991151;28;96772;-73
2021/12/20 00:27:40;;;;;;;17.63;2.97;;;;;;;;;;4992818;28;97216;-75
2021/12/20 00:30:08;;;;;;;24.10;2.65;;;;;;;;;;4991758;28;95331;-73
2021/12/20 00:32:35;;;;;;;26.42;3.63;;;;;;;;;;4991359;28;96723;-73
2021/12/20 00:35:02;;;;;;;35.30;4.05;;;;;;;;;;4990682;28;97803;-73
2021/12/20 00:40:20;;;;;;;27.15;3.33;;;;;;;;;;4991113;28;96593;-74
2021/12/20 00:42:51;;;;;;;22.85;3.20;;;;;;;;;;4990580;28;97237;-73
2021/12/20 00:45:18;;;;;;;19.70;2.95;;;;;;;;;;4990699;28;95503;-73
2021/12/20 00:47:45;;;;;;;22.98;4.30;;;;;;;;;;4989444;28;96858;-74
2021/12/20 00:50:12;;;;;;;24.38;3.55;;;;;;;;;;4993805;28;97501;-74
2021/12/20 00:52:39;;;;;;;32.30;3.53;;;;;;;;;;4991240;28;96870;-74
2021/12/20 00:55:06;;;;;;;27.20;3.47;;;;;;;;;;4990151;28;97559;-73
2021/12/20 00:57:32;;;;;;;19.58;2.92;;;;;;;;;;4989866;28;95822;-74
2021/12/20 00:59:59;;;;;;;27.42;3.30;;;;;;;;;;4990774;28;96841;-74
2021/12/20 01:02:25;;;;;;;17.50;2.83;;;;;;;;;;4989755;28;97311;-73
2021/12/20 01:04:51;;;;;;;23.60;3.13;;;;;;;;;;4991419;28;95251;-73
2021/12/20 01:07:18;;;;;;;22.23;3.17;;;;;;;;;;4991278;28;96538;-73
2021/12/20 01:09:45;;;;;;;29.13;3.03;;;;;;;;;;4990297;28;97286;-73
2021/12/20 01:12:17;;;;;;;34.58;3.35;;;;;;;;;;4993618;28;95497;-73
2021/12/20 01:14:44;;;;;;;24.67;2.97;;;;;;;;;;4973796;28;97394;-74
2021/12/20 01:17:11;;;;;;;28.17;4.65;;;;;;;;;;4989861;28;95325;-73
2021/12/20 01:19:38;;;;;;;28.13;3.92;;;;;;;;;;4991095;28;96771;-74
2021/12/20 01:22:05;;;;;;;32.78;3.30;;;;;;;;;;4990194;28;97622;-73
2021/12/20 01:24:31;;;;;;;27.65;3.72;;;;;;;;;;4990115;28;95721;-74
2021/12/20 01:26:58;;;;;;;22.48;3.40;;;;;;;;;;4990406;28;96982;-73
2021/12/20 01:29:24;;;;;;;26.52;4.07;;;;;;;;;;4990227;28;97613;-74
2021/12/20 01:31:50;;;;;;;29.88;3.80;;;;;;;;;;4990532;28;95456;-73
2021/12/20 01:34:17;;;;;;;25.85;3.95;;;;;;;;;;4992775;28;96765;-74
2021/12/20 01:36:43;;;;;;;33.35;3.72;;;;;;;;;;4989382;28;96501;-74
2021/12/20 01:39:09;;;;;;;20.45;3.38;;;;;;;;;;4989176;28;97188;-74
2021/12/20 01:41:40;;;;;;;26.95;3.60;;;;;;;;;;4990238;28;96063;-72
2021/12/20 01:44:07;;;;;;;25.42;3.33;;;;;;;;;;4989851;28;95899;-72
2021/12/20 01:46:33;;;;;;;33.92;3.83;;;;;;;;;;5022374;28;96708;-72
2021/12/20 01:49:02;;;;;;;24.42;3.53;;;;;;;;;;4990285;28;97186;-73
2021/12/20 01:53:56;;;;;;;25.33;3.40;;;;;;;;;;4990513;28;96971;-73
2021/12/20 01:56:22;;;;;;;24.48;3.88;;;;;;;;;;4993324;28;97135;-73
2021/12/20 01:58:49;;;;;;;25.42;3.15;;;;;;;;;;4989903;28;96919;-73
2021/12/20 02:03:44;;;;;;;21.70;3.75;;;;;;;;;;4990096;28;95521;-73
2021/12/20 02:06:54;;;;;;;30.73;4.38;;;;;;;;;;4989415;28;96755;-74
2021/12/20 02:09:05;;;;;;;22.60;3.03;;;;;;;;;;4985431;28;97454;-72
2021/12/20 02:11:32;;;;;;;23.52;3.05;;;;;;;;;;4989970;28;95279;-72
2021/12/20 02:13:59;;;;;;;28.55;4.70;;;;;;;;;;4988679;28;96701;-73
2021/12/20 02:16:26;;;;;;;29.70;3.47;;;;;;;;;;4989779;28;97137;-72
2021/12/20 02:18:52;;;;;;;17.20;3.05;;;;;;;;;;4992994;28;95742;-72
2021/12/20 02:21:19;;;;;;;17.25;2.83;;;;;;;;;;4989220;28;97262;-72
2021/12/20 02:23:46;;;;;;;33.40;3.53;;;;;;;;;;5016207;28;96528;-74
2021/12/20 02:26:16;;;;;;;27.80;4.00;;;;;;;;;;4987535;28;96665;-73
2021/12/20 02:28:46;;;;;;;25.23;3.22;;;;;;;;;;4987923;28;100270;-74
2021/12/20 02:38:58;;;;;;;22.70;3.00;;;;;;;;;;4991340;28;95854;-74
2021/12/20 02:41:31;;;;;;;27.27;3.55;;;;;;;;;;4988655;28;97106;-74
2021/12/20 02:44:04;;;;;;;26.95;3.72;;;;;;;;;;4989344;28;95289;-73
2021/12/20 02:49:05;;;;;;;30.90;4.53;;;;;;;;;;4989351;28;97036;-74
2021/12/20 02:51:31;;;;;;;17.02;3.50;;;;;;;;;;4989803;28;95532;-74
2021/12/20 02:53:58;;;;;;;47.08;4.50;;;;;;;;;;4989440;28;96618;-73
2021/12/20 02:56:24;;;;;;;23.05;3.33;;;;;;;;;;4982709;28;96409;-74
2021/12/20 02:58:52;;;;;;;28.92;3.75;;;;;;;;;;5012302;28;95599;-73
2021/12/20 03:01:18;;;;;;;19.33;3.90;;;;;;;;;;4992249;28;97027;-72
2021/12/20 03:03:46;;;;;;;23.92;3.17;;;;;;;;;;4987540;28;95279;-73
2021/12/20 03:06:24;;;;;;;28.60;3.63;;;;;;;;;;4989245;28;97207;-73
2021/12/20 03:08:53;;;;;;;30.15;3.40;;;;;;;;;;4988439;28;95911;-73
2021/12/20 03:11:21;;;;;;;19.05;3.65;;;;;;;;;;4987681;28;95705;-73
2021/12/20 03:13:51;;;;;;;25.75;3.78;;;;;;;;;;4968234;28;97069;-72
2021/12/20 03:16:18;;;;;;;28.10;3.45;;;;;;;;;;4968683;28;97030;-73
2021/12/20 03:18:44;;;;;;;27.27;4.03;;;;;;;;;;4988471;28;95234;-73
2021/12/20 03:21:10;;;;;;;21.67;3.45;;;;;;;;;;4988934;28;96467;-73
2021/12/20 03:23:36;;;;;;;20.35;3.70;;;;;;;;;;4990879;28;95552;-73
2021/12/20 03:26:06;;;;;;;25.50;3.97;;;;;;;;;;4988791;28;97054;-73
2021/12/20 03:28:33;;;;;;;29.70;3.03;;;;;;;;;;5011283;28;96077;-73
2021/12/20 03:30:59;;;;;;;29.33;3.72;;;;;;;;;;4986638;28;95491;-73
2021/12/20 03:33:25;;;;;;;30.75;4.80;;;;;;;;;;4986939;28;95712;-73
2021/12/20 03:35:51;;;;;;;29.17;3.42;;;;;;;;;;4988907;28;97342;-73
2021/12/20 03:38:18;;;;;;;20.77;4.28;;;;;;;;;;4987632;28;95588;-73
2021/12/20 03:40:44;;;;;;;29.10;3.58;;;;;;;;;;4989195;28;96871;-73
2021/12/20 03:43:12;;;;;;;27.25;3.35;;;;;;;;;;4988061;28;96964;-74
2021/12/20 03:45:40;;;;;;;26.20;3.33;;;;;;;;;;4992290;28;95347;-73
2021/12/20 03:48:07;;;;;;;31.38;4.82;;;;;;;;;;4988712;28;97355;-73
2021/12/20 03:50:33;;;;;;;31.45;4.50;;;;;;;;;;4988997;28;95712;-73
2021/12/20 03:52:59;;;;;;;24.30;2.78;;;;;;;;;;4988184;28;97084;-73
2021/12/20 03:55:26;;;;;;;28.00;3.42;;;;;;;;;;4988465;28;97183;-73
2021/12/20 03:57:52;;;;;;;37.60;4.15;;;;;;;;;;4988534;28;95714;-73
2021/12/20 04:00:18;;;;;;;26.38;4.15;;;;;;;;;;4988161;28;98596;-73
2021/12/20 04:02:47;;;;;;;20.83;4.40;;;;;;;;;;4988401;28;97301;-73
2021/12/20 04:05:13;;;;;;;23.55;3.42;;;;;;;;;;4988095;28;95538;-73
2021/12/20 04:07:40;;;;;;;20.33;3.33;;;;;;;;;;4991562;28;96309;-73
2021/12/20 04:10:06;;;;;;;33.50;3.95;;;;;;;;;;4987410;28;95846;-73
2021/12/20 04:12:35;;;;;;;23.63;3.00;;;;;;;;;;4987487;28;96782;-73
2021/12/20 04:15:01;;;;;;;20.33;2.97;;;;;;;;;;4988155;28;97337;-73
2021/12/20 04:17:28;;;;;;;25.38;3.50;;;;;;;;;;4987801;28;95358;-73
2021/12/20 04:19:54;;;;;;;29.13;3.45;;;;;;;;;;4986637;28;97200;-73
2021/12/20 04:22:20;;;;;;;18.88;3.30;;;;;;;;;;4988139;28;97328;-73
2021/12/20 04:24:47;;;;;;;16.55;2.83;;;;;;;;;;4988048;28;95415;-73
2021/12/20 04:27:13;;;;;;;26.77;3.75;;;;;;;;;;4987304;28;96722;-73
2021/12/20 04:29:40;;;;;;;28.77;3.38;;;;;;;;;;4990871;28;95487;-72
2021/12/20 04:32:06;;;;;;;23.58;3.38;;;;;;;;;;4987505;28;96916;-73
2021/12/20 04:34:32;;;;;;;28.80;2.95;;;;;;;;;;4987610;28;97258;-73
2021/12/20 04:36:59;;;;;;;27.85;3.22;;;;;;;;;;4988370;28;95336;-73
2021/12/20 04:39:29;;;;;;;30.70;3.75;;;;;;;;;;4987623;28;97157;-73
2021/12/20 04:41:56;;;;;;;23.08;3.47;;;;;;;;;;4987056;28;97231;-73
2021/12/20 04:44:22;;;;;;;26.90;4.63;;;;;;;;;;4987213;28;95825;-73
2021/12/20 04:46:49;;;;;;;22.45;3.38;;;;;;;;;;4987952;28;96789;-73
2021/12/20 04:49:16;;;;;;;23.13;3.60;;;;;;;;;;4990533;28;95994;-73
2021/12/20 04:51:43;;;;;;;21.77;3.58;;;;;;;;;;4990673;28;96748;-73
2021/12/20 04:54:09;;;;;;;24.42;3.40;;;;;;;;;;4990883;28;97414;-73
2021/12/20 04:56:35;;;;;;;30.33;4.18;;;;;;;;;;4990479;28;95978;-73
2021/12/20 04:59:02;;;;;;;27.90;3.45;;;;;;;;;;4991630;28;96558;-73
2021/12/20 05:01:29;;;;;;;33.03;3.53;;;;;;;;;;4990065;28;97114;-73
2021/12/20 05:03:55;;;;;;;27.48;3.60;;;;;;;;;;4991191;28;95272;-73
2021/12/20 05:06:22;;;;;;;21.60;3.35;;;;;;;;;;4990832;28;96852;-73
2021/12/20 05:08:51;;;;;;;14.20;2.85;;;;;;;;;;4990513;28;97626;-73
2021/12/20 05:11:19;;;;;;;16.40;3.40;;;;;;;;;;4994079;28;95757;-73
2021/12/20 05:13:46;;;;;;;22.85;3.20;;;;;;;;;;4990091;28;97675;-73
2021/12/20 05:16:12;;;;;;;24.95;3.60;;;;;;;;;;4996108;28;95485;-73
2021/12/20 05:18:38;;;;;;;27.40;3.40;;;;;;;;;;4990847;28;96684;-73
2021/12/20 05:21:05;;;;;;;22.90;3.42;;;;;;;;;;4989579;28;97301;-73
2021/12/20 05:23:31;;;;;;;27.88;4.25;;;;;;;;;;4990475;28;96965;-72
2021/12/20 05:25:58;;;;;;;27.55;3.70;;;;;;;;;;4994556;28;96633;-72
2021/12/20 05:28:24;;;;;;;29.63;3.38;;;;;;;;;;4990795;28;97357;-74
2021/12/20 05:30:52;;;;;;;22.02;2.92;;;;;;;;;;4990486;28;95160;-74
2021/12/20 05:33:20;;;;;;;29.50;3.70;;;;;;;;;;4987639;28;96416;-73
2021/12/20 05:35:47;;;;;;;26.00;4.03;;;;;;;;;;4988276;28;95571;-73
2021/12/20 05:38:14;;;;;;;22.73;3.30;;;;;;;;;;4989980;28;96244;-74
2021/12/20 05:40:40;;;;;;;29.45;3.88;;;;;;;;;;4990000;28;96179;-74
2021/12/20 05:43:07;;;;;;;22.83;3.45;;;;;;;;;;4989918;28;96801;-72
2021/12/20 05:45:33;;;;;;;22.95;3.45;;;;;;;;;;4981591;28;96688;-72
2021/12/20 05:48:00;;;;;;;19.60;3.53;;;;;;;;;;4971021;28;97446;-72
2021/12/20 05:50:26;;;;;;;22.17;3.65;;;;;;;;;;4970655;28;95336;-73
2021/12/20 05:52:53;;;;;;;27.42;4.40;;;;;;;;;;4983096;28;96802;-73
2021/12/20 05:55:19;;;;;;;17.35;3.22;;;;;;;;;;4992176;28;97663;-73
2021/12/20 05:57:46;;;;;;;25.85;3.60;;;;;;;;;;4989522;28;97235;-73
2021/12/20 06:00:18;;;;;;;24.27;4.15;;;;;;;;;;4989711;28;97325;-73
2021/12/20 06:02:44;;;;;;;;;;;;;;;;;;4987180;28;96615;-73
2021/12/20 06:05:11;;;;;;;22.17;4.20;;;;;;;;;;4988083;28;126499;-73
2021/12/20 06:07:40;;;;;;;19.83;3.60;;;;;;;;;;4993403;28;97548;-77
2021/12/20 06:10:07;;;;;;;19.02;2.78;;;;;;;;;;4990019;28;95223;-79
2021/12/20 06:12:33;;;;;;;44.10;14.50;;;;;;;;;;4989199;28;97086;-78
2021/12/20 06:14:59;;;;;;;26.67;5.07;;;;;;;;;;4987517;28;97246;-77
2021/12/20 06:17:26;;;;;;;20.73;3.53;;;;;;;;;;4993227;28;95408;-78
2021/12/20 06:19:52;;;;;;;21.30;2.78;;;;;;;;;;4988508;28;97528;-78
2021/12/20 06:22:18;;;;;;;17.75;3.25;;;;;;;;;;4989671;28;95172;-77
2021/12/20 06:24:45;;;;;;;19.63;2.72;;;;;;;;;;4987966;28;97228;-78
2021/12/20 06:27:11;;;;;;;18.92;3.13;;;;;;;;;;4989349;28;96105;-76
2021/12/20 06:29:37;;;;;;;18.02;2.50;;;;;;;;;;4990197;28;95425;-77
2021/12/20 06:32:04;;;;;;;16.95;2.60;;;;;;;;;;4989865;28;96629;-78
2021/12/20 06:34:30;;;;;;;19.95;2.90;;;;;;;;;;4986904;28;97565;-77
2021/12/20 06:37:00;;;;;;;20.90;2.47;;;;;;;;;;4993450;28;95359;-76
2021/12/20 06:39:31;;;;;;;20.83;3.25;;;;;;;;;;4989866;28;97461;-76
2021/12/20 06:41:58;;;;;;;19.25;2.75;;;;;;;;;;4989122;28;95348;-77
2021/12/20 06:44:24;;;;;;;19.55;3.50;;;;;;;;;;4987291;28;96830;-76
2021/12/20 06:46:51;;;;;;;21.83;3.83;;;;;;;;;;4989241;28;97456;-78
2021/12/20 06:49:18;;;;;;;12.40;2.30;;;;;;;;;;4989197;28;95370;-77
2021/12/20 06:51:44;;;;;;;14.70;2.70;;;;;;;;;;4989826;28;96744;-78
2021/12/20 06:54:13;;;;;;;18.20;2.47;;;;;;;;;;4988019;28;97176;-78
2021/12/20 06:56:41;;;;;;;14.80;2.72;;;;;;;;;;4988544;28;95317;-77
2021/12/20 06:59:07;;;;;;;24.30;3.90;;;;;;;;;;4992347;28;96763;-77
2021/12/20 07:01:34;;;;;;;18.65;3.78;;;;;;;;;;4989418;28;95342;-78
2021/12/20 07:04:01;;;;;;;19.45;3.03;;;;;;;;;;4976494;28;96881;-77
2021/12/20 07:06:29;;;;;;;16.48;2.78;;;;;;;;;;4987772;28;97297;-78
2021/12/20 07:08:56;;;;;;;19.42;3.03;;;;;;;;;;4988629;28;95273;-78
2021/12/20 07:11:22;;;;;;;18.77;3.05;;;;;;;;;;4989356;28;96864;-78
2021/12/20 07:13:49;;;;;;;19.65;3.63;;;;;;;;;;4988701;28;97701;-78
2021/12/20 07:16:16;;;;;;;20.15;3.95;;;;;;;;;;4987758;28;95710;-78
2021/12/20 07:18:43;;;;;;;14.98;3.15;;;;;;;;;;4989358;28;96242;-78
2021/12/20 07:21:09;;;;;;;18.60;3.25;;;;;;;;;;4991745;28;98017;-78
2021/12/20 07:23:35;;;;;;;18.02;3.45;;;;;;;;;;5000594;28;96769;-78
2021/12/20 08:28:35;;;;;;;18.58;4.40;;;;;;;;;;5150466;27;95957;-75
2021/12/20 08:31:05;;;;;;;20.33;3.97;;;;;;;;;;5128550;27;96641;-77
2021/12/20 08:33:32;;;;;;;26.35;5.55;;;;;;;;;;5128184;27;95559;-75
2021/12/20 08:36:00;;;;;;;23.95;6.85;;;;;;;;;;5128741;27;95589;-76
2021/12/20 08:38:27;;;;;;;23.40;5.18;;;;;;;;;;5121615;27;97310;-78
2021/12/20 08:40:57;;;;;;;19.10;5.25;;;;;;;;;;5126895;27;96642;-78
2021/12/20 08:43:23;;;;;;;25.25;6.50;;;;;;;;;;5108589;27;96727;-77
2021/12/20 08:45:50;;;;;;;24.42;4.50;;;;;;;;;;5128272;27;97755;-79
2021/12/20 08:48:16;;;;;;;11.02;4.38;;;;;;;;;;5131148;27;95830;-77
2021/12/20 08:50:43;;;;;;;23.10;5.07;;;;;;;;;;5127787;27;97420;-78
2021/12/20 08:53:14;;;;;;;19.63;4.13;;;;;;;;;;5125723;27;95460;-78
2021/12/20 08:55:40;;;;;;;19.08;4.53;;;;;;;;;;5127766;27;96769;-76
2021/12/20 08:58:06;;;;;;;18.52;4.00;;;;;;;;;;5127510;27;97331;-78
2021/12/20 09:00:34;;;;;;;26.15;5.22;;;;;;;;;;5126269;27;95375;-76
2021/12/20 09:03:01;;;;;;;19.83;4.38;;;;;;;;;;5127598;27;96873;-76
2021/12/20 09:05:29;;;;;;;16.60;3.67;;;;;;;;;;5127200;27;98929;-76
2021/12/20 09:07:59;;;;;;;26.08;4.93;;;;;;;;;;5123463;27;95341;-75
2021/12/20 09:10:26;;;;;;;19.27;3.30;;;;;;;;;;5130166;27;96776;-77
2021/12/20 09:12:52;;;;;;;21.75;4.15;;;;;;;;;;5128213;27;95619;-75
2021/12/20 09:15:19;;;;;;;20.45;4.05;;;;;;;;;;5127195;27;97165;-79
2021/12/20 09:17:46;;;;;;;16.00;3.63;;;;;;;;;;5127777;27;97619;-76
2021/12/20 09:20:13;;;;;;;24.48;4.10;;;;;;;;;;5127031;27;96234;-75
2021/12/20 09:22:50;;;;;;;28.30;3.40;;;;;;;;;;5127614;27;96490;-76
2021/12/20 09:25:20;;;;;;;23.85;3.72;;;;;;;;;;5126592;27;96252;-76
2021/12/20 09:27:47;;;;;;;23.50;3.20;;;;;;;;;;5127599;27;95332;-75
2021/12/20 09:30:15;;;;;;;19.55;3.20;;;;;;;;;;5107330;27;96276;-75
2021/12/20 09:32:42;;;;;;;16.75;3.40;;;;;;;;;;5130097;27;96320;-75
2021/12/20 09:35:09;;;;;;;13.60;2.63;;;;;;;;;;5127519;27;96695;-76
2021/12/20 09:37:37;;;;;;;13.48;3.42;;;;;;;;;;5126719;27;96558;-76
2021/12/20 09:40:04;;;;;;;18.42;4.05;;;;;;;;;;5112239;27;95435;-76
2021/12/20 09:42:31;;;;;;;214.18;16.25;;;;;;;;;;5113296;27;96800;-75
2021/12/20 09:44:59;;;;;;;15.10;3.60;;;;;;;;;;5112124;27;97549;-76
2021/12/20 09:47:25;;;;;;;19.10;3.42;;;;;;;;;;5113536;27;95306;-75
2021/12/20 09:49:52;;;;;;;17.58;2.80;;;;;;;;;;5111417;27;96874;-76
2021/12/20 15:46:47;;;;;;;25.50;8.18;;;;;;;;;;5026750;28;95408;-73
2021/12/20 15:49:14;;;;;;;35.42;8.95;;;;;;;;;;5011173;27;98189;-74
2021/12/20 15:51:40;;;;;;;27.58;9.82;;;;;;;;;;5005722;28;95429;-74
2021/12/20 15:54:08;;;;;;;39.88;12.38;;;;;;;;;;5003805;28;97177;-74
2021/12/20 15:56:34;;;;;;;29.05;10.02;;;;;;;;;;5003825;28;97268;-74
2021/12/20 15:59:18;;;;;;;30.02;10.55;;;;;;;;;;5000373;28;95775;-72
2021/12/20 16:01:45;;;;;;;36.10;12.05;;;;;;;;;;5004580;28;95928;-74
2021/12/20 16:04:12;;;;;;;30.65;10.07;;;;;;;;;;5002863;28;96896;-74
2021/12/20 16:06:40;;;;;;;30.20;10.60;;;;;;;;;;5006975;28;96004;-72
2021/12/20 16:09:06;;;;;;;31.45;10.63;;;;;;;;;;5007741;28;97307;-71
2021/12/20 16:11:33;;;;;;;30.27;10.48;;;;;;;;;;5003699;28;95823;-74
2021/12/20 16:13:59;;;;;;;34.72;9.68;;;;;;;;;;5004294;28;97192;-72
2021/12/20 16:16:26;;;;;;;36.88;11.55;;;;;;;;;;5002773;28;96231;-72
2021/12/20 16:18:52;;;;;;;34.00;10.25;;;;;;;;;;5019234;28;95692;-72
2021/12/20 16:21:18;;;;;;;29.58;9.23;;;;;;;;;;5024455;28;96817;-74
2021/12/20 16:23:45;;;;;;;28.45;9.48;;;;;;;;;;5006281;28;97095;-74
2021/12/20 16:26:11;;;;;;;24.40;8.60;;;;;;;;;;5016685;28;95888;-73
2021/12/20 16:28:37;;;;;;;24.52;8.82;;;;;;;;;;5008945;28;96734;-74
2021/12/20 16:31:04;;;;;;;39.30;9.43;;;;;;;;;;5009144;28;95303;-74
2021/12/20 16:33:35;;;;;;;24.95;6.65;;;;;;;;;;5004882;28;95899;-74
2021/12/20 16:36:02;;;;;;;21.42;7.35;;;;;;;;;;5002627;28;97509;-74
2021/12/20 16:38:28;;;;;;;26.63;6.63;;;;;;;;;;5002596;28;95399;-74
2021/12/20 16:40:54;;;;;;;29.52;6.97;;;;;;;;;;5008183;28;96927;-74
2021/12/20 16:43:20;;;;;;;29.23;6.75;;;;;;;;;;5008369;28;97357;-74
2021/12/20 16:48:22;;;;;;;38.00;7.88;;;;;;;;;;5001640;28;95561;-74
2021/12/20 16:50:50;;;;;;;23.50;7.80;;;;;;;;;;5006272;28;97620;-74
2021/12/20 16:53:16;;;;;;;20.45;7.40;;;;;;;;;;5004141;28;97240;-74
2021/12/20 16:55:43;;;;;;;21.92;7.03;;;;;;;;;;5002891;28;97787;-78
2021/12/20 16:58:09;;;;;;;27.00;7.00;;;;;;;;;;4989788;28;95666;-74
2021/12/20 17:00:38;;;;;;;18.75;6.10;;;;;;;;;;4990731;28;96912;-74
2021/12/20 17:03:20;;;;;;;32.13;7.10;;;;;;;;;;4990287;28;97622;-74
2021/12/20 17:08:18;;;;;;;19.85;6.43;;;;;;;;;;4990161;28;96502;-74
2021/12/20 17:10:45;;;;;;;16.75;6.38;;;;;;;;;;4989478;28;97771;-71
2021/12/20 17:13:12;;;;;;;26.10;8.75;;;;;;;;;;4992855;28;95316;-74
2021/12/20 17:15:39;;;;;;;27.88;8.52;;;;;;;;;;4990886;28;97292;-73
2021/12/20 17:18:07;;;;;;;22.52;7.57;;;;;;;;;;4990233;28;95526;-73
2021/12/20 17:20:34;;;;;;;20.45;7.35;;;;;;;;;;5003945;28;96760;-72
2021/12/20 17:23:00;;;;;;;26.25;9.05;;;;;;;;;;4990432;28;97250;-72
2021/12/20 17:25:26;;;;;;;18.50;6.88;;;;;;;;;;4990504;28;95272;-72
2021/12/20 17:27:53;;;;;;;25.63;7.47;;;;;;;;;;4989781;28;96758;-72
2021/12/20 17:30:19;;;;;;;19.35;7.57;;;;;;;;;;4990479;28;96910;-72
2021/12/20 17:32:46;;;;;;;19.85;8.50;;;;;;;;;;4984585;28;97436;-72
2021/12/20 17:35:12;;;;;;;23.38;8.18;;;;;;;;;;4976705;28;95873;-73
2021/12/20 17:37:39;;;;;;;23.83;7.32;;;;;;;;;;4985366;28;95362;-73
2021/12/20 17:40:12;;;;;;;16.45;5.30;;;;;;;;;;4972784;28;97053;-73
2021/12/20 17:42:38;;;;;;;17.30;6.20;;;;;;;;;;4977327;28;97267;-73
2021/12/20 17:45:04;;;;;;;21.60;7.75;;;;;;;;;;4973678;28;95332;-73
2021/12/20 17:47:31;;;;;;;22.27;8.30;;;;;;;;;;4983583;28;96834;-72
2021/12/20 17:49:57;;;;;;;38.03;9.45;;;;;;;;;;4986916;28;96637;-72
2021/12/20 17:52:24;;;;;;;17.63;8.70;;;;;;;;;;4986309;28;95325;-72
2021/12/20 17:54:50;;;;;;;29.50;10.50;;;;;;;;;;4978520;28;96588;-72
2021/12/20 17:57:16;;;;;;;27.60;11.90;;;;;;;;;;4989909;28;96026;-72
2021/12/20 17:59:43;;;;;;;22.73;9.43;;;;;;;;;;4984461;28;96110;-73
2021/12/20 18:02:25;;;;;;;19.40;7.65;;;;;;;;;;4980848;28;97209;-73
2021/12/20 18:04:58;;;;;;;25.98;6.55;;;;;;;;;;4979637;28;95440;-72
2021/12/20 18:07:25;;;;;;;22.83;7.10;;;;;;;;;;4980629;28;96844;-73
2021/12/20 18:09:52;;;;;;;22.42;7.82;;;;;;;;;;4979839;28;97128;-72
2021/12/20 18:12:20;;;;;;;23.20;7.00;;;;;;;;;;4981087;28;95602;-73
2021/12/20 18:14:46;;;;;;;22.75;7.55;;;;;;;;;;4975881;28;95977;-72
2021/12/20 18:17:14;;;;;;;20.45;6.45;;;;;;;;;;4985960;28;97320;-73
2021/12/20 18:19:43;;;;;;;14.07;5.53;;;;;;;;;;4980156;28;96920;-73
2021/12/20 18:22:11;;;;;;;22.80;7.00;;;;;;;;;;4985840;28;97713;-72
2021/12/20 18:24:39;;;;;;;17.77;7.22;;;;;;;;;;4989506;28;95499;-72
2021/12/20 18:27:08;;;;;;;19.65;6.97;;;;;;;;;;4984059;28;95833;-72
2021/12/20 18:29:35;;;;;;;24.52;7.50;;;;;;;;;;4990890;28;97378;-72
2021/12/20 18:32:02;;;;;;;22.58;7.85;;;;;;;;;;4981078;28;95784;-72
2021/12/20 18:34:29;;;;;;;24.02;7.00;;;;;;;;;;4984242;28;96956;-73
2021/12/20 18:36:55;;;;;;;22.60;9.05;;;;;;;;;;4988889;28;97342;-73
2021/12/20 18:39:22;;;;;;;24.83;10.18;;;;;;;;;;4997601;28;96742;-73
2021/12/20 18:41:49;;;;;;;24.40;10.15;;;;;;;;;;4988311;28;97329;-72
2021/12/20 18:44:15;;;;;;;22.50;10.30;;;;;;;;;;4986333;28;95659;-73
2021/12/20 18:46:42;;;;;;;22.58;9.10;;;;;;;;;;4978454;28;95714;-73
2021/12/20 18:49:10;;;;;;;25.80;11.07;;;;;;;;;;4986731;28;98589;-73
2021/12/20 18:51:36;;;;;;;26.45;11.48;;;;;;;;;;4994644;28;96319;-73
2021/12/20 18:54:03;;;;;;;29.63;11.77;;;;;;;;;;4980230;28;96785;-73
2021/12/20 18:56:32;;;;;;;21.83;12.27;;;;;;;;;;4993175;28;97327;-73
2021/12/20 18:58:58;;;;;;;28.70;13.15;;;;;;;;;;4993236;28;95605;-74
2021/12/20 19:01:26;;;;;;;27.95;12.57;;;;;;;;;;4998096;28;95318;-73
2021/12/20 19:03:53;;;;;;;26.42;10.82;;;;;;;;;;4995801;28;95240;-73
2021/12/20 19:06:33;;;;;;;37.17;11.40;;;;;;;;;;4984998;28;96885;-73
2021/12/20 19:09:00;;;;;;;29.63;11.88;;;;;;;;;;4989180;28;98121;-73
2021/12/20 19:14:08;;;;;;;23.80;11.60;;;;;;;;;;4984338;28;96634;-74
2021/12/20 19:16:35;;;;;;;35.17;12.75;;;;;;;;;;4981865;28;97301;-73
2021/12/20 19:19:03;;;;;;;26.63;11.07;;;;;;;;;;4983481;28;96939;-73
2021/12/20 19:21:32;;;;;;;28.13;10.85;;;;;;;;;;4984915;28;97247;-72
2021/12/20 19:23:59;;;;;;;28.90;11.73;;;;;;;;;;4984605;28;97341;-73
2021/12/20 19:26:26;;;;;;;25.48;10.52;;;;;;;;;;4980988;28;96771;-72
2021/12/20 19:28:56;;;;;;;25.23;9.20;;;;;;;;;;4982917;28;97653;-73
2021/12/20 19:31:23;;;;;;;28.67;11.68;;;;;;;;;;4983070;28;95944;-75
2021/12/20 19:33:52;;;;;;;23.27;10.13;;;;;;;;;;4980859;28;96818;-74
2021/12/20 19:36:26;;;;;;;22.70;10.32;;;;;;;;;;4984076;28;97381;-74
2021/12/20 19:38:53;;;;;;;19.08;7.40;;;;;;;;;;4986582;28;95347;-74
2021/12/20 19:41:19;;;;;;;32.42;8.52;;;;;;;;;;4986606;28;96852;-74
2021/12/20 19:43:46;;;;;;;19.15;8.40;;;;;;;;;;4987698;28;96877;-74
2021/12/20 19:46:12;;;;;;;23.70;8.52;;;;;;;;;;4990271;28;95647;-74
2021/12/20 19:48:38;;;;;;;22.27;9.23;;;;;;;;;;4987700;28;97357;-74
2021/12/20 19:51:05;;;;;;;23.23;10.30;;;;;;;;;;4986872;28;95509;-74
2021/12/20 19:53:32;;;;;;;22.27;11.02;;;;;;;;;;4986758;28;96790;-74
2021/12/20 19:55:59;;;;;;;29.50;12.48;;;;;;;;;;4986064;28;97323;-74
2021/12/20 19:58:43;;;;;;;32.75;15.63;;;;;;;;;;4997949;28;95286;-74
2021/12/20 20:01:09;;;;;;;28.65;14.35;;;;;;;;;;4989183;28;96521;-74
2021/12/20 20:03:36;;;;;;;28.90;13.10;;;;;;;;;;4983327;28;97402;-74
2021/12/20 20:06:02;;;;;;;34.42;13.65;;;;;;;;;;4993325;28;95318;-75
2021/12/20 20:08:28;;;;;;;33.10;12.50;;;;;;;;;;4991990;28;97242;-74
2021/12/20 20:10:55;;;;;;;37.10;12.85;;;;;;;;;;4985079;28;96811;-74
2021/12/20 20:13:27;;;;;;;32.55;12.68;;;;;;;;;;4984133;28;95682;-75
2021/12/20 20:15:57;;;;;;;40.47;12.77;;;;;;;;;;4990523;28;97374;-75
2021/12/20 20:18:29;;;;;;;22.63;11.70;;;;;;;;;;4983007;28;95861;-74
2021/12/20 20:20:56;;;;;;;37.35;14.95;;;;;;;;;;4985972;28;96718;-74
2021/12/20 20:23:23;;;;;;;30.23;12.18;;;;;;;;;;4980090;28;97397;-73
2021/12/20 20:25:49;;;;;;;29.63;12.10;;;;;;;;;;4993892;28;95503;-74
2021/12/20 20:28:21;;;;;;;30.55;12.23;;;;;;;;;;4995190;28;97139;-74
2021/12/20 20:30:48;;;;;;;26.88;11.30;;;;;;;;;;4992854;28;95708;-74
2021/12/20 20:33:14;;;;;;;36.90;12.75;;;;;;;;;;4986347;28;96792;-74
2021/12/20 20:35:40;;;;;;;29.42;12.80;;;;;;;;;;4989880;28;97314;-74
2021/12/20 20:38:07;;;;;;;29.75;12.50;;;;;;;;;;4996558;28;95438;-74
2021/12/20 20:40:33;;;;;;;26.63;11.52;;;;;;;;;;4990819;28;97303;-74
2021/12/20 20:43:01;;;;;;;33.30;12.55;;;;;;;;;;4991789;28;97443;-74
2021/12/20 20:45:28;;;;;;;37.83;14.85;;;;;;;;;;4988918;28;96150;-74
2021/12/20 20:47:55;;;;;;;35.40;16.98;;;;;;;;;;4990643;28;96637;-74
2021/12/20 20:50:21;;;;;;;41.13;16.65;;;;;;;;;;4993093;28;96285;-74
2021/12/20 20:52:48;;;;;;;33.22;15.98;;;;;;;;;;4989921;28;96759;-74
2021/12/20 20:55:14;;;;;;;32.08;16.25;;;;;;;;;;4989478;28;97380;-74
2021/12/20 20:57:40;;;;;;;34.85;16.30;;;;;;;;;;4989729;28;95328;-74
2021/12/20 21:02:54;;;;;;;32.03;13.90;;;;;;;;;;4990242;28;97315;-74
2021/12/20 21:05:21;;;;;;;26.73;12.30;;;;;;;;;;4988762;28;96696;-74
2021/12/20 21:07:47;;;;;;;42.17;20.00;;;;;;;;;;4990257;28;97094;-74
2021/12/20 21:10:14;;;;;;;30.38;17.52;;;;;;;;;;4989846;28;96693;-74
2021/12/20 21:12:40;;;;;;;27.85;12.98;;;;;;;;;;5010475;28;95674;-74
2021/12/20 21:15:06;;;;;;;28.25;14.65;;;;;;;;;;4988862;28;97636;-74
2021/12/20 21:17:33;;;;;;;24.05;13.70;;;;;;;;;;4981032;28;96092;-74
2021/12/20 21:20:01;;;;;;;27.35;13.05;;;;;;;;;;4975762;28;96766;-74
2021/12/20 21:22:28;;;;;;;31.75;13.57;;;;;;;;;;4992677;28;96406;-74
2021/12/20 21:24:54;;;;;;;39.83;16.98;;;;;;;;;;5009329;28;95667;-74
2021/12/20 21:27:21;;;;;;;34.35;15.73;;;;;;;;;;4994424;28;96985;-74
2021/12/20 21:29:47;;;;;;;40.05;16.45;;;;;;;;;;4990103;28;97583;-74
2021/12/20 21:32:14;;;;;;;40.28;18.13;;;;;;;;;;4993477;28;96307;-74
2021/12/20 21:34:40;;;;;;;44.38;17.65;;;;;;;;;;4994825;28;96553;-74
2021/12/20 21:37:06;;;;;;;42.63;18.70;;;;;;;;;;4992025;28;95597;-74
2021/12/20 21:39:32;;;;;;;35.85;16.52;;;;;;;;;;4992202;28;96917;-74
2021/12/20 21:42:01;;;;;;;34.38;15.50;;;;;;;;;;4991622;28;97353;-74
2021/12/20 21:44:28;;;;;;;39.88;16.15;;;;;;;;;;4987849;28;95316;-75
2021/12/20 21:46:54;;;;;;;30.63;14.52;;;;;;;;;;4989557;28;96825;-75
2021/12/20 21:49:20;;;;;;;31.10;12.23;;;;;;;;;;4989943;28;97334;-74
2021/12/20 21:51:47;;;;;;;36.70;15.00;;;;;;;;;;4996602;28;95514;-73